Time;durP1;ratioP1;P1;durP2;ratioP2;P2;SDS_P1;SDS_P2;PMS_P1;PMS_P2;Temp;Humidity;BMP_temperature;BMP_pressure;BME280_temperature;BME280_humidity;BME280_pressure;Samples;Min_cycle;Max_cycle;Signal;HPM_P1;HPM_P2
2024/01/16 00:00:07;;;;;;;0.90;0.88;;;;;;;;;;2068807;28;20034;-63
2024/01/16 00:02:09;;;;;;;1.55;1.15;;;;;;;;;;2103484;23;20565;-84
2024/01/16 00:03:39;;;;;;;1.15;0.70;;;;;;;;;;2048099;28;20050;-84
2024/01/16 00:05:14;;;;;;;;;;;;;;;;;;;;;
2024/01/16 00:06:45;;;;;;;1.25;1.00;;;;;;;;;;2070272;28;20038;-82
2024/01/16 00:08:26;;;;;;;0.85;0.80;;;;;;;;;;2071070;28;20495;-83
2024/01/16 00:10:46;;;;;;;;;;;;;;;;;;;;;
2024/01/16 00:12:09;;;;;;;0.80;0.60;;;;;;;;;;2061248;28;20041;-82
2024/01/16 00:13:40;;;;;;;2.80;0.70;;;;;;;;;;2070206;28;20030;-83
2024/01/16 00:17:01;;;;;;;1.23;0.70;;;;;;;;;;2070129;28;20109;-83
2024/01/16 00:18:41;;;;;;;1.60;0.77;;;;;;;;;;2069876;28;20081;-83
2024/01/16 00:20:08;;;;;;;1.08;0.70;;;;;;;;;;2071638;28;20144;-82
2024/01/16 00:22:03;;;;;;;;;;;;;;;;;;;;;
2024/01/16 00:27:23;;;;;;;;;;;;;;;;;;;;;
2024/01/16 00:29:12;;;;;;;0.68;0.68;;;;;;;;;;2071715;28;20117;-83
2024/01/16 00:30:39;;;;;;;1.33;0.73;;;;;;;;;;2072284;28;20034;-82
2024/01/16 00:32:02;;;;;;;0.80;0.65;;;;;;;;;;2069552;28;20054;-85
2024/01/16 00:33:50;;;;;;;1.73;0.88;;;;;;;;;;2069187;28;20065;-82
2024/01/16 00:35:33;;;;;;;3.80;0.73;;;;;;;;;;2070177;28;20097;-84
2024/01/16 00:37:10;;;;;;;2.33;0.70;;;;;;;;;;2068891;28;20030;-82
2024/01/16 00:38:41;;;;;;;0.63;0.63;;;;;;;;;;2077457;28;20045;-82
2024/01/16 00:40:04;;;;;;;0.77;0.60;;;;;;;;;;2072303;28;20057;-82
2024/01/16 00:41:26;;;;;;;0.30;0.30;;;;;;;;;;2069474;28;20026;-83
2024/01/16 00:42:46;;;;;;;;;;;;;;;;;;2068745;28;20058;-82
2024/01/16 00:44:25;;;;;;;1.95;0.57;;;;;;;;;;2067956;28;19917;-82
2024/01/16 00:45:46;;;;;;;0.52;0.52;;;;;;;;;;2070186;28;20094;-83
2024/01/16 00:51:19;;;;;;;0.77;0.70;;;;;;;;;;2071057;28;20041;-82
2024/01/16 00:52:59;;;;;;;;;;;;;;;;;;;;;
2024/01/16 00:54:40;;;;;;;1.80;0.60;;;;;;;;;;2069652;28;20033;-82
2024/01/16 00:56:29;;;;;;;;;;;;;;;;;;;;;
2024/01/16 01:00:03;;;;;;;0.98;0.50;;;;;;;;;;2062175;28;20058;-84
2024/01/16 01:01:37;;;;;;;0.47;0.40;;;;;;;;;;2045509;28;20063;-82
2024/01/16 01:03:03;;;;;;;0.30;0.30;;;;;;;;;;2062931;28;20160;-81
2024/01/16 01:04:42;;;;;;;0.82;0.50;;;;;;;;;;2062242;28;20038;-82
2024/01/16 01:07:50;;;;;;;0.85;0.40;;;;;;;;;;2061505;28;20050;-82
2024/01/16 01:09:14;;;;;;;0.98;0.70;;;;;;;;;;2064262;28;20034;-82
2024/01/16 01:10:44;;;;;;;1.98;0.52;;;;;;;;;;2060914;28;20038;-83
2024/01/16 01:12:17;;;;;;;0.63;0.45;;;;;;;;;;2065395;28;20762;-83
2024/01/16 01:14:06;;;;;;;0.32;0.32;;;;;;;;;;2063339;28;20030;-85
2024/01/16 01:15:33;;;;;;;0.77;0.55;;;;;;;;;;2064647;28;20034;-82
2024/01/16 01:16:58;;;;;;;2.15;0.52;;;;;;;;;;2065853;28;20038;-85
2024/01/16 01:20:48;;;;;;;0.85;0.85;;;;;;;;;;2062381;28;20034;-82
2024/01/16 01:22:13;;;;;;;0.88;0.50;;;;;;;;;;2071450;28;20022;-82
2024/01/16 01:23:39;;;;;;;1.10;0.50;;;;;;;;;;2062715;28;20035;-82
2024/01/16 01:25:20;;;;;;;0.85;0.50;;;;;;;;;;2060456;28;20030;-84
2024/01/16 01:26:58;;;;;;;;;;;;;;;;;;;;;
2024/01/16 01:28:20;;;;;;;0.95;0.50;;;;;;;;;;2064740;28;20023;-82
2024/01/16 01:29:52;;;;;;;;;;;;;;;;;;;;;
2024/01/16 01:31:34;;;;;;;;;;;;;;;;;;;;;
2024/01/16 01:33:05;;;;;;;1.08;0.43;;;;;;;;;;2063571;28;20743;-83
2024/01/16 01:34:42;;;;;;;1.98;0.52;;;;;;;;;;2063088;28;20034;-83
2024/01/16 01:36:04;;;;;;;0.77;0.47;;;;;;;;;;2063188;28;20034;-82
2024/01/16 01:37:26;;;;;;;0.50;0.50;;;;;;;;;;2060421;28;20034;-83
2024/01/16 01:38:48;;;;;;;0.40;0.30;;;;;;;;;;2060342;28;20034;-82
2024/01/16 01:40:17;;;;;;;0.47;0.47;;;;;;;;;;2068263;28;20022;-85
2024/01/16 01:41:43;;;;;;;1.55;0.60;;;;;;;;;;2063846;28;20034;-82
2024/01/16 01:43:21;;;;;;;1.10;0.47;;;;;;;;;;2063577;28;20030;-82
2024/01/16 01:44:43;;;;;;;1.60;0.40;;;;;;;;;;2064168;28;20029;-82
2024/01/16 01:46:40;;;;;;;6.15;0.65;;;;;;;;;;2061808;28;20038;-82
2024/01/16 01:48:10;;;;;;;0.50;0.50;;;;;;;;;;2031579;29;20040;-84
2024/01/16 01:52:06;;;;;;;0.75;0.73;;;;;;;;;;2013650;29;20049;-82
2024/01/16 01:54:05;;;;;;;;;;;;;;;;;;;;;
2024/01/16 01:56:02;;;;;;;1.35;0.40;;;;;;;;;;2010129;29;20041;-82
2024/01/16 01:57:52;;;;;;;0.85;0.35;;;;;;;;;;2031990;29;20040;-83
2024/01/16 01:59:16;;;;;;;0.80;0.50;;;;;;;;;;2054553;28;20031;-82
2024/01/16 02:00:47;;;;;;;0.47;0.43;;;;;;;;;;2051977;28;20082;-82
2024/01/16 02:02:15;;;;;;;1.02;0.80;;;;;;;;;;2056366;28;20023;-84
2024/01/16 02:03:39;;;;;;;2.30;0.60;;;;;;;;;;2061523;28;20042;-82
2024/01/16 02:05:07;;;;;;;0.70;0.40;;;;;;;;;;2065440;28;20054;-84
2024/01/16 02:06:56;;;;;;;0.43;0.40;;;;;;;;;;2069411;28;20120;-82
2024/01/16 02:08:31;;;;;;;;;;;;;;;;;;;;;
2024/01/16 02:10:20;;;;;;;0.40;0.40;;;;;;;;;;2069370;28;20030;-82
2024/01/16 02:11:54;;;;;;;0.35;0.30;;;;;;;;;;2048143;28;20043;-82
2024/01/16 02:13:13;;;;;;;0.68;0.63;;;;;;;;;;2050228;28;20114;-83
2024/01/16 02:14:38;;;;;;;0.85;0.40;;;;;;;;;;2047811;28;20441;-82
2024/01/16 02:15:57;;;;;;;0.50;0.50;;;;;;;;;;2039874;29;20059;-80
2024/01/16 02:17:19;;;;;;;0.40;0.40;;;;;;;;;;2060666;28;20027;-82
2024/01/16 02:21:11;;;;;;;;;;;;;;;;;;;;;
2024/01/16 02:22:46;;;;;;;;;;;;;;;;;;;;;
2024/01/16 02:24:30;;;;;;;0.43;0.30;;;;;;;;;;2071814;28;20053;-84
2024/01/16 02:26:35;;;;;;;;;;;;;;;;;;;;;
2024/01/16 02:30:00;;;;;;;0.95;0.40;;;;;;;;;;2070655;28;20034;-82
2024/01/16 02:31:43;;;;;;;2.63;0.50;;;;;;;;;;2048289;28;20027;-82
2024/01/16 02:33:14;;;;;;;0.80;0.80;;;;;;;;;;2070327;28;20491;-82
2024/01/16 02:35:00;;;;;;;0.30;0.30;;;;;;;;;;2071526;28;20311;-82
2024/01/16 02:36:19;;;;;;;2.55;0.47;;;;;;;;;;2073689;28;20019;-81
2024/01/16 02:37:41;;;;;;;0.60;0.28;;;;;;;;;;2069406;28;20034;-83
2024/01/16 02:39:06;;;;;;;0.70;0.65;;;;;;;;;;2071121;28;20026;-82
2024/01/16 02:40:30;;;;;;;0.70;0.47;;;;;;;;;;2077796;28;20034;-82
2024/01/16 02:42:01;;;;;;;0.40;0.40;;;;;;;;;;2074624;28;20621;-82
2024/01/16 02:43:23;;;;;;;1.73;0.50;;;;;;;;;;2071060;28;20055;-83
2024/01/16 02:44:45;;;;;;;0.90;0.40;;;;;;;;;;2071365;28;20026;-82
2024/01/16 02:46:08;;;;;;;1.70;0.60;;;;;;;;;;2067692;28;20038;-83
2024/01/16 02:47:30;;;;;;;1.27;0.50;;;;;;;;;;2069771;28;20042;-84
2024/01/16 02:48:54;;;;;;;1.85;0.60;;;;;;;;;;2070886;28;20450;-82
2024/01/16 02:50:46;;;;;;;;;;;;;;;;;;;;;
2024/01/16 02:52:06;;;;;;;0.20;0.20;;;;;;;;;;2072346;28;20482;-86
2024/01/16 02:53:28;;;;;;;0.30;0.30;;;;;;;;;;2073730;28;20580;-82
2024/01/16 02:54:57;;;;;;;0.30;0.30;;;;;;;;;;2070649;28;20030;-84
2024/01/16 02:56:28;;;;;;;1.25;0.50;;;;;;;;;;2070796;28;20030;-82
2024/01/16 02:57:58;;;;;;;0.30;0.30;;;;;;;;;;2063289;28;20094;-82
2024/01/16 02:59:30;;;;;;;0.38;0.30;;;;;;;;;;2069871;28;20038;-83
2024/01/16 03:01:03;;;;;;;0.88;0.30;;;;;;;;;;2071237;28;20026;-82
2024/01/16 03:02:30;;;;;;;8.00;0.52;;;;;;;;;;2070282;28;20190;-82
2024/01/16 03:04:00;;;;;;;;;;;;;;;;;;;;;
2024/01/16 03:05:29;;;;;;;0.40;0.30;;;;;;;;;;2066942;28;20030;-82
2024/01/16 03:07:00;;;;;;;0.85;0.45;;;;;;;;;;2064351;28;20034;-82
2024/01/16 03:08:22;;;;;;;4.18;0.57;;;;;;;;;;2063516;28;20113;-81
2024/01/16 03:10:25;;;;;;;;;;;;;;;;;;;;;
2024/01/16 03:12:47;;;;;;;0.30;0.30;;;;;;;;;;2049559;28;20046;-83
2024/01/16 03:13:56;;;;;;;1.65;0.30;;;;;;;;;;2065779;28;20030;-82
2024/01/16 03:15:18;;;;;;;0.82;0.50;;;;;;;;;;2064886;28;20491;-82
2024/01/16 03:16:44;;;;;;;1.13;0.40;;;;;;;;;;2063908;28;20035;-82
2024/01/16 03:18:16;;;;;;;;;;;;;;;;;;;;;
2024/01/16 03:19:46;;;;;;;0.30;0.30;;;;;;;;;;2063842;28;20038;-81
2024/01/16 03:21:15;;;;;;;0.65;0.30;;;;;;;;;;2064187;28;20117;-83
2024/01/16 03:22:44;;;;;;;0.40;0.40;;;;;;;;;;2063985;28;20022;-82
2024/01/16 03:24:21;;;;;;;0.55;0.40;;;;;;;;;;2061898;28;20030;-81
2024/01/16 03:26:07;;;;;;;2.65;0.60;;;;;;;;;;2063663;28;20031;-83
2024/01/16 03:27:29;;;;;;;0.75;0.50;;;;;;;;;;2064082;28;20034;-82
2024/01/16 03:29:07;;;;;;;;;;;;;;;;;;;;;
2024/01/16 03:30:55;;;;;;;;;;;;;;;;;;;;;
2024/01/16 03:32:26;;;;;;;1.00;0.50;;;;;;;;;;2065389;28;20030;-82
2024/01/16 03:33:53;;;;;;;2.80;0.50;;;;;;;;;;2064504;28;20034;-82
2024/01/16 03:35:12;;;;;;;0.57;0.45;;;;;;;;;;2062721;28;20026;-81
2024/01/16 03:36:31;;;;;;;0.55;0.40;;;;;;;;;;2058646;28;20033;-82
2024/01/16 03:38:00;;;;;;;0.50;0.35;;;;;;;;;;2061680;28;20054;-85
2024/01/16 03:39:25;;;;;;;0.50;0.30;;;;;;;;;;2060373;28;20039;-83
2024/01/16 03:40:47;;;;;;;0.43;0.32;;;;;;;;;;2061488;28;20038;-81
2024/01/16 03:42:12;;;;;;;0.88;0.40;;;;;;;;;;2061375;28;20118;-82
2024/01/16 03:43:33;;;;;;;0.95;0.47;;;;;;;;;;2062477;28;20511;-82
2024/01/16 03:45:01;;;;;;;0.95;0.52;;;;;;;;;;2059073;28;20062;-85
2024/01/16 03:46:20;;;;;;;0.50;0.40;;;;;;;;;;2061458;28;20485;-81
2024/01/16 03:47:50;;;;;;;0.38;0.38;;;;;;;;;;2058790;28;20042;-82
2024/01/16 03:49:12;;;;;;;0.43;0.30;;;;;;;;;;2062634;28;20046;-82
2024/01/16 03:50:40;;;;;;;0.50;0.50;;;;;;;;;;2061210;28;20042;-81
2024/01/16 03:52:00;;;;;;;0.40;0.35;;;;;;;;;;2069741;28;20038;-82
2024/01/16 03:53:19;;;;;;;0.50;0.40;;;;;;;;;;2061851;28;20026;-82
2024/01/16 03:54:44;;;;;;;0.52;0.52;;;;;;;;;;2060620;28;20552;-85
2024/01/16 03:56:12;;;;;;;0.30;0.30;;;;;;;;;;2063346;28;20038;-82
2024/01/16 03:57:31;;;;;;;1.50;0.40;;;;;;;;;;2063302;28;20031;-82
2024/01/16 03:58:53;;;;;;;0.57;0.50;;;;;;;;;;2061534;28;20153;-82
2024/01/16 04:00:20;;;;;;;0.40;0.40;;;;;;;;;;2060469;28;20026;-83
2024/01/16 04:01:50;;;;;;;0.50;0.50;;;;;;;;;;2060378;28;20035;-82
2024/01/16 04:03:16;;;;;;;0.40;0.40;;;;;;;;;;2070209;28;20046;-83
2024/01/16 04:04:41;;;;;;;0.47;0.47;;;;;;;;;;2071137;28;20077;-83
2024/01/16 04:06:00;;;;;;;0.52;0.40;;;;;;;;;;2068165;28;20417;-82
2024/01/16 04:07:26;;;;;;;0.30;0.30;;;;;;;;;;2069661;28;20034;-81
2024/01/16 04:08:51;;;;;;;1.45;0.38;;;;;;;;;;2068517;28;20470;-82
2024/01/16 04:10:16;;;;;;;2.83;0.68;;;;;;;;;;2076106;28;20542;-82
2024/01/16 04:11:51;;;;;;;;;;;;;;;;;;;;;
2024/01/16 04:15:01;;;;;;;1.20;0.43;;;;;;;;;;2067576;28;20062;-82
2024/01/16 04:16:47;;;;;;;0.40;0.30;;;;;;;;;;2072087;28;20037;-83
2024/01/16 04:18:27;;;;;;;0.88;0.30;;;;;;;;;;2067932;28;20039;-83
2024/01/16 04:20:03;;;;;;;0.32;0.30;;;;;;;;;;2071560;28;20026;-82
2024/01/16 04:21:31;;;;;;;0.88;0.40;;;;;;;;;;2070608;28;20033;-83
2024/01/16 04:22:51;;;;;;;2.50;0.60;;;;;;;;;;2076984;28;20030;-84
2024/01/16 04:24:15;;;;;;;1.48;0.50;;;;;;;;;;2071298;28;20046;-82
2024/01/16 04:25:53;;;;;;;0.38;0.38;;;;;;;;;;2075729;28;20042;-84
2024/01/16 04:27:15;;;;;;;0.40;0.38;;;;;;;;;;2071626;28;20074;-83
2024/01/16 04:28:37;;;;;;;1.45;0.20;;;;;;;;;;2069779;28;20082;-83
2024/01/16 04:30:16;;;;;;;2.15;0.57;;;;;;;;;;2069974;28;20117;-82
2024/01/16 04:33:49;;;;;;;0.63;0.40;;;;;;;;;;2042123;28;20080;-83
2024/01/16 04:35:10;;;;;;;0.30;0.30;;;;;;;;;;2072600;28;20069;-82
2024/01/16 04:38:43;;;;;;;0.30;0.30;;;;;;;;;;2057909;28;20066;-82
2024/01/16 04:42:02;;;;;;;1.27;0.30;;;;;;;;;;2056621;28;20461;-82
2024/01/16 04:43:32;;;;;;;0.73;0.50;;;;;;;;;;2056622;28;20047;-82
2024/01/16 04:45:11;;;;;;;1.55;0.40;;;;;;;;;;2044135;28;20028;-83
2024/01/16 04:46:39;;;;;;;0.85;0.40;;;;;;;;;;2050157;28;20039;-83
2024/01/16 04:48:18;;;;;;;0.32;0.20;;;;;;;;;;2069892;28;20026;-83
2024/01/16 04:50:17;;;;;;;1.55;0.40;;;;;;;;;;2069975;28;20100;-83
2024/01/16 04:51:42;;;;;;;0.50;0.50;;;;;;;;;;2065595;28;20062;-83
2024/01/16 04:53:16;;;;;;;0.43;0.35;;;;;;;;;;2070618;28;20029;-81
2024/01/16 04:54:36;;;;;;;0.40;0.30;;;;;;;;;;2070359;28;20057;-82
2024/01/16 04:56:01;;;;;;;0.40;0.30;;;;;;;;;;2069972;28;20034;-85
2024/01/16 04:57:25;;;;;;;1.08;0.40;;;;;;;;;;2076558;28;20029;-83
2024/01/16 04:58:54;;;;;;;0.50;0.47;;;;;;;;;;2070566;28;20045;-82
2024/01/16 05:00:16;;;;;;;0.65;0.30;;;;;;;;;;2069796;28;20042;-82
2024/01/16 05:01:38;;;;;;;0.50;0.50;;;;;;;;;;2076732;28;20037;-82
2024/01/16 05:03:09;;;;;;;0.30;0.30;;;;;;;;;;2064337;28;20069;-83
2024/01/16 05:04:31;;;;;;;0.32;0.32;;;;;;;;;;2065379;28;20248;-83
2024/01/16 05:06:14;;;;;;;0.47;0.40;;;;;;;;;;2062762;28;20023;-82
2024/01/16 05:07:47;;;;;;;2.15;0.38;;;;;;;;;;2062873;28;20476;-83
2024/01/16 05:09:22;;;;;;;;;;;;;;;;;;;;;
2024/01/16 05:10:54;;;;;;;0.73;0.65;;;;;;;;;;2062970;28;20042;-82
2024/01/16 05:16:57;;;;;;;;;;;;;;;;;;;;;
2024/01/16 05:19:15;;;;;;;0.40;0.40;;;;;;;;;;2051944;28;20031;-85
2024/01/16 05:20:55;;;;;;;0.77;0.70;;;;;;;;;;2062030;28;20038;-83
2024/01/16 05:22:15;;;;;;;0.45;0.40;;;;;;;;;;2062292;28;20106;-83
2024/01/16 05:23:40;;;;;;;0.45;0.45;;;;;;;;;;2060412;28;20042;-85
2024/01/16 05:25:17;;;;;;;0.40;0.30;;;;;;;;;;2064061;28;20034;-81
2024/01/16 05:26:36;;;;;;;0.65;0.52;;;;;;;;;;2063928;28;20442;-82
2024/01/16 05:27:58;;;;;;;0.77;0.40;;;;;;;;;;2058305;28;20042;-82
2024/01/16 05:29:18;;;;;;;0.30;0.22;;;;;;;;;;2061069;28;20034;-84
2024/01/16 05:32:20;;;;;;;1.10;0.77;;;;;;;;;;2063729;28;20035;-84
2024/01/16 05:33:48;;;;;;;;;;;;;;;;;;2064366;28;20117;-84
2024/01/16 05:35:11;;;;;;;1.95;0.52;;;;;;;;;;2062169;28;19914;-83
2024/01/16 05:36:45;;;;;;;;;;;;;;;;;;;;;
2024/01/16 05:38:16;;;;;;;;;;;;;;;;;;;;;
2024/01/16 05:39:41;;;;;;;2.25;0.60;;;;;;;;;;2064680;28;20399;-80
2024/01/16 05:41:38;;;;;;;0.30;0.30;;;;;;;;;;2062295;28;20504;-80
2024/01/16 05:43:48;;;;;;;0.77;0.75;;;;;;;;;;2030992;29;20036;-82
2024/01/16 05:45:29;;;;;;;0.65;0.40;;;;;;;;;;2030707;29;20033;-85
2024/01/16 05:47:03;;;;;;;0.75;0.40;;;;;;;;;;2065517;28;20038;-85
2024/01/16 05:48:28;;;;;;;1.63;0.60;;;;;;;;;;2063173;28;20026;-85
2024/01/16 05:49:47;;;;;;;4.00;0.85;;;;;;;;;;2061583;28;20018;-85
2024/01/16 05:51:22;;;;;;;;;;;;;;;;;;;;;
2024/01/16 05:52:59;;;;;;;1.58;0.45;;;;;;;;;;2064140;28;20042;-83
2024/01/16 05:54:26;;;;;;;2.85;0.55;;;;;;;;;;2063839;28;21083;-86
2024/01/16 05:58:00;;;;;;;1.15;0.50;;;;;;;;;;2063109;28;20448;-82
2024/01/16 05:59:46;;;;;;;2.42;0.60;;;;;;;;;;2062572;28;20424;-80
2024/01/16 06:01:08;;;;;;;0.40;0.40;;;;;;;;;;2062667;28;20425;-80
2024/01/16 06:02:34;;;;;;;0.70;0.65;;;;;;;;;;2062301;28;20034;-84
2024/01/16 06:03:58;;;;;;;3.72;1.05;;;;;;;;;;2060158;28;20042;-81
2024/01/16 06:05:48;;;;;;;0.73;0.50;;;;;;;;;;2060919;28;20110;-88
2024/01/16 06:07:30;;;;;;;4.53;1.27;;;;;;;;;;2061920;28;20034;-82
2024/01/16 06:31:29;;;;;;;;;;;;;;;;;;;;;
2024/01/16 06:41:53;;;;;;;;;;;;;;;;;;;;;
2024/01/16 06:50:05;;;;;;;1.58;0.65;;;;;;;;;;2119761;27;20464;-66
2024/01/16 06:51:24;;;;;;;1.23;0.77;;;;;;;;;;2108505;28;20036;-64
2024/01/16 06:52:43;;;;;;;5.65;1.50;;;;;;;;;;2104517;28;20032;-63
2024/01/16 06:54:03;;;;;;;4.05;2.08;;;;;;;;;;2107280;22;20087;-64
2024/01/16 06:55:22;;;;;;;1.15;1.02;;;;;;;;;;2102667;28;20028;-64
2024/01/16 06:56:41;;;;;;;1.88;0.75;;;;;;;;;;2102920;28;20152;-65
2024/01/16 06:58:00;;;;;;;3.00;0.80;;;;;;;;;;2109725;22;20012;-61
2024/01/16 06:59:21;;;;;;;1.30;0.98;;;;;;;;;;2102964;28;20043;-62
2024/01/16 07:00:41;;;;;;;2.65;1.15;;;;;;;;;;2107617;28;20040;-61
2024/01/16 07:03:02;;;;;;;2.33;1.48;;;;;;;;;;2164381;22;20048;-63
2024/01/16 07:04:21;;;;;;;4.15;1.50;;;;;;;;;;2095963;28;20036;-63
2024/01/16 07:05:43;;;;;;;2.83;1.30;;;;;;;;;;2099557;28;20064;-63
2024/01/16 07:07:02;;;;;;;2.20;1.25;;;;;;;;;;2108985;22;21679;-63
2024/01/16 07:08:21;;;;;;;1.52;1.42;;;;;;;;;;2092107;28;20045;-63
2024/01/16 07:09:40;;;;;;;2.58;1.42;;;;;;;;;;2098812;28;20420;-63
2024/01/16 07:12:03;;;;;;;2.67;2.22;;;;;;;;;;2088338;28;20045;-66
2024/01/16 07:13:22;;;;;;;4.35;1.45;;;;;;;;;;2084792;28;20099;-66
2024/01/16 07:14:41;;;;;;;1.35;1.25;;;;;;;;;;2088226;28;20041;-65
2024/01/16 07:16:00;;;;;;;1.58;1.00;;;;;;;;;;2100786;22;20644;-66
2024/01/16 07:17:20;;;;;;;2.47;1.33;;;;;;;;;;2097118;28;20115;-66
2024/01/16 07:18:39;;;;;;;3.65;1.83;;;;;;;;;;2106529;28;20483;-65
2024/01/16 07:21:03;;;;;;;2.83;1.40;;;;;;;;;;2098222;28;20070;-63
2024/01/16 07:22:23;;;;;;;2.75;1.85;;;;;;;;;;2103225;28;20021;-64
2024/01/16 07:23:42;;;;;;;2.50;2.00;;;;;;;;;;2094114;28;20033;-63
2024/01/16 07:25:00;;;;;;;3.30;3.00;;;;;;;;;;2135734;22;20049;-63
2024/01/16 07:26:19;;;;;;;6.22;4.22;;;;;;;;;;2085162;28;20121;-64
2024/01/16 07:27:39;;;;;;;9.35;6.13;;;;;;;;;;2085719;28;20645;-63
2024/01/16 07:28:58;;;;;;;10.57;8.38;;;;;;;;;;2147817;22;20112;-64
2024/01/16 07:30:17;;;;;;;9.80;7.95;;;;;;;;;;2093633;28;20045;-65
2024/01/16 07:31:36;;;;;;;8.77;5.55;;;;;;;;;;2095355;28;20052;-66
2024/01/16 07:32:55;;;;;;;13.20;9.10;;;;;;;;;;2095281;28;20040;-66
2024/01/16 07:34:05;;;;;;;10.40;8.00;;;;;;;;;;2154248;22;20059;-67
2024/01/16 07:35:24;;;;;;;10.27;7.53;;;;;;;;;;2086710;28;20041;-66
2024/01/16 07:36:43;;;;;;;12.38;8.20;;;;;;;;;;2091841;28;20021;-66
2024/01/16 07:38:02;;;;;;;5.65;5.15;;;;;;;;;;2100157;22;20064;-65
2024/01/16 07:39:22;;;;;;;6.97;5.70;;;;;;;;;;2093313;28;20122;-63
2024/01/16 07:40:42;;;;;;;4.35;3.65;;;;;;;;;;2079349;28;20034;-65
2024/01/16 07:43:10;;;;;;;3.22;2.45;;;;;;;;;;2088068;28;20408;-63
2024/01/16 07:44:29;;;;;;;2.78;1.63;;;;;;;;;;2090607;28;20100;-63
2024/01/16 07:45:48;;;;;;;2.50;1.67;;;;;;;;;;2083705;28;20038;-63
2024/01/16 07:47:08;;;;;;;6.05;1.90;;;;;;;;;;2157629;22;20087;-63
2024/01/16 07:48:27;;;;;;;2.95;2.10;;;;;;;;;;2090397;28;20025;-63
2024/01/16 07:49:46;;;;;;;4.43;3.53;;;;;;;;;;2083987;28;20060;-63
2024/01/16 07:51:06;;;;;;;2.75;2.22;;;;;;;;;;2137702;22;20029;-65
2024/01/16 07:52:24;;;;;;;2.42;1.48;;;;;;;;;;2083514;28;20583;-66
2024/01/16 07:53:44;;;;;;;3.08;1.60;;;;;;;;;;2081230;28;20033;-65
2024/01/16 07:55:03;;;;;;;5.13;1.50;;;;;;;;;;2084182;28;20045;-65
2024/01/16 07:56:16;;;;;;;1.40;1.30;;;;;;;;;;2147303;22;20052;-63
2024/01/16 07:57:35;;;;;;;5.57;1.27;;;;;;;;;;2087234;28;20033;-63
2024/01/16 07:58:54;;;;;;;5.93;1.20;;;;;;;;;;2089521;28;21388;-64
2024/01/16 08:00:13;;;;;;;2.03;1.17;;;;;;;;;;2098819;22;20037;-63
2024/01/16 08:01:32;;;;;;;7.93;1.38;;;;;;;;;;2087927;28;20116;-63
2024/01/16 08:02:51;;;;;;;2.50;1.27;;;;;;;;;;2084614;28;20029;-64
2024/01/16 08:05:21;;;;;;;2.00;1.80;;;;;;;;;;2077288;28;20050;-63
2024/01/16 08:06:40;;;;;;;1.70;1.10;;;;;;;;;;2073460;28;20033;-63
2024/01/16 08:07:59;;;;;;;2.40;1.48;;;;;;;;;;2078045;28;20034;-63
2024/01/16 08:09:19;;;;;;;2.70;1.42;;;;;;;;;;2144221;22;20057;-65
2024/01/16 08:10:41;;;;;;;1.35;1.25;;;;;;;;;;2081456;28;20097;-65
2024/01/16 08:12:02;;;;;;;1.63;1.17;;;;;;;;;;2085747;28;20028;-65
2024/01/16 08:13:21;;;;;;;1.75;1.33;;;;;;;;;;2148272;22;20012;-63
2024/01/16 08:14:40;;;;;;;3.38;1.48;;;;;;;;;;2073480;28;20033;-64
2024/01/16 08:15:59;;;;;;;1.80;1.17;;;;;;;;;;2069376;28;20037;-65
2024/01/16 08:17:18;;;;;;;1.40;1.30;;;;;;;;;;2071527;28;20072;-64
2024/01/16 08:18:37;;;;;;;1.13;1.05;;;;;;;;;;2085461;28;20116;-65
2024/01/16 08:19:56;;;;;;;1.80;1.05;;;;;;;;;;2091673;28;20032;-67
2024/01/16 08:21:15;;;;;;;1.33;1.20;;;;;;;;;;2082952;28;20029;-64
2024/01/16 08:22:34;;;;;;;1.63;1.48;;;;;;;;;;2093936;22;21568;-65
2024/01/16 08:23:53;;;;;;;1.17;1.08;;;;;;;;;;2088950;28;20029;-64
2024/01/16 08:25:12;;;;;;;1.80;0.90;;;;;;;;;;2089451;28;20353;-64
2024/01/16 08:27:34;;;;;;;2.45;1.02;;;;;;;;;;2076055;28;20498;-62
2024/01/16 08:28:53;;;;;;;1.40;1.20;;;;;;;;;;2087226;28;20079;-62
2024/01/16 08:30:12;;;;;;;2.08;1.15;;;;;;;;;;2083122;28;20117;-62
2024/01/16 08:31:31;;;;;;;1.27;1.10;;;;;;;;;;2145531;22;20392;-62
2024/01/16 08:32:50;;;;;;;1.50;1.13;;;;;;;;;;2082418;28;20033;-62
2024/01/16 08:34:09;;;;;;;1.27;1.17;;;;;;;;;;2082341;28;20033;-62
2024/01/16 08:35:28;;;;;;;1.65;0.98;;;;;;;;;;2148052;22;20484;-63
2024/01/16 08:36:47;;;;;;;1.17;1.05;;;;;;;;;;2070721;28;20054;-64
2024/01/16 08:38:06;;;;;;;1.77;1.42;;;;;;;;;;2071192;28;20037;-65
2024/01/16 08:39:27;;;;;;;1.75;1.20;;;;;;;;;;2071641;28;20397;-65
2024/01/16 08:40:49;;;;;;;3.03;1.27;;;;;;;;;;2082602;28;20049;-65
2024/01/16 08:42:11;;;;;;;2.25;1.30;;;;;;;;;;2084328;28;20452;-63
2024/01/16 08:43:30;;;;;;;1.38;0.90;;;;;;;;;;2076867;28;20037;-64
2024/01/16 08:44:49;;;;;;;1.58;1.10;;;;;;;;;;2123978;22;20053;-64
2024/01/16 08:46:08;;;;;;;3.92;1.40;;;;;;;;;;2077123;28;20037;-63
2024/01/16 08:47:27;;;;;;;2.67;1.40;;;;;;;;;;2073750;28;20442;-64
2024/01/16 08:48:46;;;;;;;4.68;1.10;;;;;;;;;;2108439;22;20465;-62
2024/01/16 08:50:05;;;;;;;1.60;1.17;;;;;;;;;;2084789;28;20072;-62
2024/01/16 08:51:25;;;;;;;3.03;1.40;;;;;;;;;;2092706;28;20041;-62
2024/01/16 08:52:44;;;;;;;2.38;1.33;;;;;;;;;;2087536;28;20029;-62
2024/01/16 08:53:56;;;;;;;1.20;1.08;;;;;;;;;;2136460;22;20393;-65
2024/01/16 08:55:16;;;;;;;1.30;1.10;;;;;;;;;;2084730;28;20668;-64
2024/01/16 08:56:35;;;;;;;1.35;1.17;;;;;;;;;;2078182;28;20038;-63
2024/01/16 08:58:56;;;;;;;2.08;1.60;;;;;;;;;;2084172;28;20041;-65
2024/01/16 09:00:15;;;;;;;1.50;1.30;;;;;;;;;;2078363;28;20029;-65
2024/01/16 09:01:34;;;;;;;1.70;1.45;;;;;;;;;;2073910;28;20021;-65
2024/01/16 09:02:54;;;;;;;1.42;1.10;;;;;;;;;;2084118;23;20057;-62
2024/01/16 09:04:12;;;;;;;3.25;1.40;;;;;;;;;;2071719;28;20121;-62
2024/01/16 09:05:34;;;;;;;1.77;1.15;;;;;;;;;;2077873;28;20030;-62
2024/01/16 09:07:56;;;;;;;3.08;1.10;;;;;;;;;;2080835;28;20049;-65
2024/01/16 09:09:15;;;;;;;2.60;1.77;;;;;;;;;;2087966;28;20108;-66
2024/01/16 09:10:34;;;;;;;1.77;1.30;;;;;;;;;;2086217;28;20033;-65
2024/01/16 09:11:53;;;;;;;1.27;1.00;;;;;;;;;;2077243;28;20041;-64
2024/01/16 09:13:13;;;;;;;1.40;1.17;;;;;;;;;;2070468;28;20952;-64
2024/01/16 09:14:32;;;;;;;2.55;1.38;;;;;;;;;;2075923;28;20033;-64
2024/01/16 09:16:55;;;;;;;1.20;1.10;;;;;;;;;;2085904;28;20049;-63
2024/01/16 09:18:14;;;;;;;1.15;1.00;;;;;;;;;;2086748;28;20033;-65
2024/01/16 09:20:46;;;;;;;2.30;1.35;;;;;;;;;;2076665;28;20061;-62
2024/01/16 09:22:05;;;;;;;2.75;1.42;;;;;;;;;;2078587;28;20025;-62
2024/01/16 09:23:24;;;;;;;1.15;1.05;;;;;;;;;;2082163;28;20041;-62
2024/01/16 09:24:43;;;;;;;3.13;1.63;;;;;;;;;;2142655;22;20511;-62
2024/01/16 09:26:02;;;;;;;2.17;1.63;;;;;;;;;;2078522;28;20096;-62
2024/01/16 09:27:22;;;;;;;4.43;1.42;;;;;;;;;;2074969;28;20475;-62
2024/01/16 09:28:41;;;;;;;3.47;1.40;;;;;;;;;;2134586;23;20021;-62
2024/01/16 09:30:00;;;;;;;4.30;1.50;;;;;;;;;;2068831;28;20038;-63
2024/01/16 09:31:19;;;;;;;2.00;1.15;;;;;;;;;;2071574;28;20070;-63
2024/01/16 09:32:38;;;;;;;1.40;1.30;;;;;;;;;;2071729;28;20034;-62
2024/01/16 09:33:56;;;;;;;1.52;1.00;;;;;;;;;;2081951;23;22005;-64
2024/01/16 09:35:15;;;;;;;1.38;1.10;;;;;;;;;;2070272;28;20414;-64
2024/01/16 09:36:37;;;;;;;1.63;0.98;;;;;;;;;;2074646;28;20069;-64
2024/01/16 09:37:56;;;;;;;1.58;1.33;;;;;;;;;;2080665;22;20357;-64
2024/01/16 09:39:16;;;;;;;1.75;1.10;;;;;;;;;;2063248;28;20030;-65
2024/01/16 09:40:38;;;;;;;1.95;1.10;;;;;;;;;;2070816;28;20038;-64
2024/01/16 09:43:01;;;;;;;2.90;1.20;;;;;;;;;;2080265;28;20037;-64
2024/01/16 09:44:19;;;;;;;0.93;0.88;;;;;;;;;;2082183;28;20033;-65
2024/01/16 09:45:38;;;;;;;1.15;0.93;;;;;;;;;;2082593;28;20061;-65
2024/01/16 09:46:58;;;;;;;1.42;1.00;;;;;;;;;;2094165;22;20080;-64
2024/01/16 09:48:16;;;;;;;2.58;1.20;;;;;;;;;;2076755;28;20037;-65
2024/01/16 09:49:36;;;;;;;1.77;1.05;;;;;;;;;;2076773;28;20436;-64
2024/01/16 09:50:55;;;;;;;1.83;1.20;;;;;;;;;;2131214;22;20501;-62
2024/01/16 09:52:14;;;;;;;2.00;1.15;;;;;;;;;;2085259;28;20025;-61
2024/01/16 09:53:33;;;;;;;2.90;1.20;;;;;;;;;;2086384;28;20565;-62
2024/01/16 09:54:52;;;;;;;4.05;1.10;;;;;;;;;;2087148;28;20100;-62
2024/01/16 09:56:03;;;;;;;1.70;1.13;;;;;;;;;;2137097;22;20086;-62
2024/01/16 09:57:26;;;;;;;2.20;1.50;;;;;;;;;;2088308;28;20033;-62
2024/01/16 09:58:47;;;;;;;1.73;1.33;;;;;;;;;;2088789;28;20021;-62
2024/01/16 10:00:11;;;;;;;2.97;1.60;;;;;;;;;;2119392;22;20221;-63
2024/01/16 10:01:30;;;;;;;1.60;1.08;;;;;;;;;;2075866;28;20610;-64
2024/01/16 10:02:50;;;;;;;1.35;1.10;;;;;;;;;;2075024;28;20030;-65
2024/01/16 10:04:09;;;;;;;3.33;1.45;;;;;;;;;;2138416;22;20033;-65
2024/01/16 10:05:29;;;;;;;1.27;1.08;;;;;;;;;;2069310;28;20041;-64
2024/01/16 10:06:49;;;;;;;7.05;1.65;;;;;;;;;;2076294;28;20026;-65
2024/01/16 10:08:08;;;;;;;2.10;1.35;;;;;;;;;;2082544;28;20041;-65
2024/01/16 10:09:21;;;;;;;4.38;1.52;;;;;;;;;;2119647;23;20418;-63
2024/01/16 10:10:40;;;;;;;1.15;1.05;;;;;;;;;;2074638;28;20526;-62
2024/01/16 10:12:00;;;;;;;6.30;1.42;;;;;;;;;;2071140;28;20038;-62
2024/01/16 10:13:19;;;;;;;1.50;1.33;;;;;;;;;;2139858;22;20052;-63
2024/01/16 10:14:38;;;;;;;1.58;1.40;;;;;;;;;;2092770;28;20057;-63
2024/01/16 10:15:59;;;;;;;1.50;1.40;;;;;;;;;;2085111;28;20032;-62
2024/01/16 10:18:31;;;;;;;2.55;1.35;;;;;;;;;;2078485;28;20089;-62
2024/01/16 10:19:54;;;;;;;1.60;1.20;;;;;;;;;;2088825;28;20045;-62
2024/01/16 10:21:21;;;;;;;1.83;1.30;;;;;;;;;;2088211;28;20069;-62
2024/01/16 10:22:40;;;;;;;1.80;1.45;;;;;;;;;;2125094;22;20069;-64
2024/01/16 10:24:10;;;;;;;1.50;1.20;;;;;;;;;;2081937;28;20072;-65